createdAt,value
2022-08-17T00:00:42.900Z,1006.43
2022-08-17T00:01:17.939Z,1006.49
2022-08-17T00:02:25.462Z,1006.49
2022-08-17T00:03:17.870Z,1006.44
2022-08-17T00:04:16.879Z,1006.44
2022-08-17T00:05:16.822Z,1006.46
2022-08-17T00:06:16.809Z,1006.44
2022-08-17T00:07:16.790Z,1006.45
2022-08-17T00:08:16.879Z,1006.45
2022-08-17T00:09:18.728Z,1006.41
2022-08-17T00:10:16.753Z,1006.44
2022-08-17T00:11:16.742Z,1006.43
2022-08-17T00:12:42.562Z,1006.44
2022-08-17T00:13:17.723Z,1006.46
2022-08-17T00:14:16.705Z,1006.50
2022-08-17T00:15:16.723Z,1006.48
2022-08-17T00:16:16.674Z,1006.44
2022-08-17T00:17:16.665Z,1006.46
2022-08-17T00:19:06.291Z,1006.44
2022-08-17T00:19:17.653Z,1006.44
2022-08-17T00:20:16.633Z,1006.39
2022-08-17T00:21:16.728Z,1006.38
2022-08-17T00:22:33.616Z,1006.34
2022-08-17T00:23:17.598Z,1006.39
2022-08-17T00:24:16.579Z,1006.33
2022-08-17T00:25:16.574Z,1006.40
2022-08-17T00:26:16.559Z,1006.35
2022-08-17T00:27:17.660Z,1006.30
2022-08-17T00:28:16.529Z,1006.32
2022-08-17T00:29:19.558Z,1006.31
2022-08-17T00:30:16.512Z,1006.28
2022-08-17T00:31:16.493Z,1006.32
2022-08-17T00:33:13.867Z,1006.34
2022-08-17T00:33:17.492Z,1006.34
2022-08-17T00:34:16.450Z,1006.34
2022-08-17T00:35:16.441Z,1006.31
2022-08-17T00:36:16.421Z,1006.32
2022-08-17T00:37:16.413Z,1006.31
2022-08-17T00:38:16.410Z,1006.31
2022-08-17T00:39:16.425Z,1006.33
2022-08-17T00:40:16.429Z,1006.35
2022-08-17T00:41:16.364Z,1006.30
2022-08-17T00:42:16.357Z,1006.32
2022-08-17T00:43:16.345Z,1006.35
2022-08-17T00:44:16.331Z,1006.33
2022-08-17T00:45:16.346Z,1006.30
2022-08-17T00:46:16.309Z,1006.27
2022-08-17T00:47:16.285Z,1006.29
2022-08-17T00:48:29.187Z,1006.19
2022-08-17T00:49:17.267Z,1006.21
2022-08-17T00:50:16.255Z,1006.15
2022-08-17T00:51:16.355Z,1006.15
2022-08-17T00:52:16.220Z,1006.12
2022-08-17T00:53:16.209Z,1006.13
2022-08-17T00:54:16.199Z,1006.15
2022-08-17T00:55:16.181Z,1006.13
2022-08-17T00:56:16.175Z,1006.16
2022-08-17T00:57:16.191Z,1006.14
2022-08-17T00:58:16.149Z,1006.13
2022-08-17T00:59:17.142Z,1006.22
2022-08-17T01:00:16.120Z,1006.13
2022-08-17T01:01:21.592Z,1006.12
2022-08-17T01:02:17.122Z,1006.14
2022-08-17T01:03:16.083Z,1006.13
2022-08-17T01:04:16.070Z,1006.11
2022-08-17T01:05:16.063Z,1006.12
2022-08-17T01:06:16.044Z,1006.08
2022-08-17T01:07:16.033Z,1006.13
2022-08-17T01:08:16.055Z,1006.13
2022-08-17T01:09:16.005Z,1006.13
2022-08-17T01:10:59.042Z,1006.19
2022-08-17T01:11:16.987Z,1006.21
2022-08-17T01:12:15.968Z,1006.21
2022-08-17T01:13:15.967Z,1006.21
2022-08-17T01:14:16.048Z,1006.19
2022-08-17T01:15:15.927Z,1006.19
2022-08-17T01:16:15.987Z,1006.17
2022-08-17T01:17:15.908Z,1006.16
2022-08-17T01:18:15.970Z,1006.14
2022-08-17T01:19:15.897Z,1006.14
2022-08-17T01:20:15.898Z,1006.15
2022-08-17T01:21:15.860Z,1006.14
2022-08-17T01:22:15.840Z,1006.16
2022-08-17T01:23:18.557Z,1006.14
2022-08-17T01:24:16.820Z,1006.16
2022-08-17T01:25:15.801Z,1006.12
2022-08-17T01:26:15.902Z,1006.14
2022-08-17T01:27:15.799Z,1006.07
2022-08-17T01:28:52.920Z,1006.10
2022-08-17T01:29:16.753Z,1006.13
2022-08-17T01:30:56.614Z,1006.15
2022-08-17T01:31:16.763Z,1006.14
2022-08-17T01:32:15.714Z,1006.12
2022-08-17T01:33:15.704Z,1006.16
2022-08-17T01:34:15.697Z,1006.16
2022-08-17T01:35:15.683Z,1006.18
2022-08-17T01:36:15.665Z,1006.14
2022-08-17T01:37:15.686Z,1006.14
2022-08-17T01:38:15.636Z,1006.21
2022-08-17T01:39:15.626Z,1006.14
2022-08-17T01:40:15.683Z,1006.16
2022-08-17T01:41:15.608Z,1006.15
2022-08-17T01:42:15.597Z,1006.13
2022-08-17T01:43:15.619Z,1006.17
2022-08-17T01:44:15.562Z,1006.14
2022-08-17T01:45:15.560Z,1006.12
2022-08-17T01:46:15.538Z,1006.19
2022-08-17T01:47:15.528Z,1006.08
2022-08-17T01:48:15.519Z,1006.15
2022-08-17T01:49:15.610Z,1006.13
2022-08-17T01:50:15.513Z,1006.08
2022-08-17T01:51:15.480Z,1006.13
2022-08-17T01:52:15.462Z,1006.18
2022-08-17T01:53:15.451Z,1006.13
2022-08-17T01:54:15.435Z,1006.10
2022-08-17T01:55:15.472Z,1006.10
2022-08-17T01:56:15.416Z,1005.99
2022-08-17T01:57:15.417Z,1006.03
2022-08-17T01:58:15.386Z,1005.99
2022-08-17T01:59:15.384Z,1006.06
2022-08-17T02:00:15.372Z,1006.03
2022-08-17T02:01:15.514Z,1005.97
2022-08-17T02:02:30.425Z,1006.00
2022-08-17T02:03:16.334Z,1006.00
2022-08-17T02:04:15.317Z,1006.05
2022-08-17T02:05:15.306Z,1006.03
2022-08-17T02:06:27.864Z,1006.00
2022-08-17T02:07:16.467Z,1005.99
2022-08-17T02:08:19.859Z,1006.01
2022-08-17T02:09:16.964Z,1005.96
2022-08-17T02:10:19.834Z,1005.96
2022-08-17T02:11:16.237Z,1006.05
2022-08-17T02:12:39.510Z,1006.07
2022-08-17T02:13:16.237Z,1006.09
2022-08-17T02:14:15.182Z,1006.08
2022-08-17T02:15:15.180Z,1006.06
2022-08-17T02:16:15.173Z,1006.06
2022-08-17T02:17:15.154Z,1006.08
2022-08-17T02:18:15.133Z,1006.03
2022-08-17T02:19:15.155Z,1006.05
2022-08-17T02:20:15.116Z,1006.07
2022-08-17T02:21:16.129Z,1006.10
2022-08-17T02:22:15.084Z,1006.08
2022-08-17T02:23:15.077Z,1006.13
2022-08-17T02:24:15.075Z,1006.11
2022-08-17T02:25:15.175Z,1006.11
2022-08-17T02:26:25.596Z,1006.10
2022-08-17T02:27:16.066Z,1006.07
2022-08-17T02:28:15.007Z,1006.09
2022-08-17T02:29:14.999Z,1006.12
2022-08-17T02:31:00.117Z,1006.06
2022-08-17T02:31:16.007Z,1006.05
2022-08-17T02:32:14.958Z,1006.10
2022-08-17T02:33:15.953Z,1006.07
2022-08-17T02:34:14.945Z,1006.04
2022-08-17T02:35:14.929Z,1006.05
2022-08-17T02:36:14.925Z,1006.06
2022-08-17T02:37:15.012Z,1006.07
2022-08-17T02:38:14.882Z,1006.02
2022-08-17T02:39:14.874Z,1006.03
2022-08-17T02:40:14.924Z,1006.01
2022-08-17T02:41:14.850Z,1006.00
2022-08-17T02:42:14.833Z,1006.01
2022-08-17T02:43:14.941Z,1006.00
2022-08-17T02:44:14.804Z,1005.99
2022-08-17T02:45:15.793Z,1005.98
2022-08-17T02:46:14.782Z,1006.02
2022-08-17T02:47:14.774Z,1005.99
2022-08-17T02:48:14.758Z,1006.03
2022-08-17T02:49:15.777Z,1006.04
2022-08-17T02:50:14.725Z,1006.04
2022-08-17T02:51:14.725Z,1006.05
2022-08-17T02:52:14.716Z,1006.06
2022-08-17T02:53:14.697Z,1006.09
2022-08-17T02:54:40.614Z,1006.11
2022-08-17T02:55:15.697Z,1006.11
2022-08-17T02:56:14.651Z,1006.11
2022-08-17T02:57:14.648Z,1006.10
2022-08-17T02:58:14.628Z,1006.13
2022-08-17T02:59:15.620Z,1006.09
2022-08-17T03:00:14.608Z,1006.03
2022-08-17T03:01:14.677Z,1006.03
2022-08-17T03:02:14.580Z,1006.02
2022-08-17T03:03:14.575Z,1006.04
2022-08-17T03:04:14.552Z,1006.04
2022-08-17T03:05:14.552Z,1006.06
2022-08-17T03:06:14.540Z,1005.99
2022-08-17T03:07:14.540Z,1005.99
2022-08-17T03:08:14.502Z,1006.02
2022-08-17T03:09:14.495Z,1006.06
2022-08-17T03:10:14.474Z,1006.00
2022-08-17T03:11:14.463Z,1005.99
2022-08-17T03:12:14.452Z,1006.00
2022-08-17T03:13:14.479Z,1005.96
2022-08-17T03:14:14.423Z,1006.01
2022-08-17T03:15:14.423Z,1006.07
2022-08-17T03:16:14.397Z,1006.00
2022-08-17T03:17:17.100Z,1005.98
2022-08-17T03:18:24.615Z,1005.96
2022-08-17T03:19:15.489Z,1005.95
2022-08-17T03:20:14.350Z,1005.96
2022-08-17T03:21:14.336Z,1005.93
2022-08-17T03:22:35.528Z,1005.96
2022-08-17T03:23:15.318Z,1005.97
2022-08-17T03:24:14.298Z,1005.97
2022-08-17T03:25:14.316Z,1005.94
2022-08-17T03:26:16.313Z,1005.94
2022-08-17T03:27:14.259Z,1005.92
2022-08-17T03:28:14.251Z,1005.96
2022-08-17T03:29:14.241Z,1005.93
2022-08-17T03:30:15.849Z,1005.96
2022-08-17T03:31:14.233Z,1005.97
2022-08-17T03:32:14.201Z,1005.93
2022-08-17T03:33:14.201Z,1005.96
2022-08-17T03:34:14.180Z,1005.94
2022-08-17T03:35:14.162Z,1005.94
2022-08-17T03:36:14.151Z,1005.96
2022-08-17T03:37:14.286Z,1005.92
2022-08-17T03:38:15.031Z,1005.93
2022-08-17T03:39:14.103Z,1005.98
2022-08-17T03:40:14.189Z,1005.92
2022-08-17T03:41:14.085Z,1005.94
2022-08-17T03:42:31.139Z,1005.92
2022-08-17T03:43:15.090Z,1005.93
2022-08-17T03:44:14.044Z,1005.95
2022-08-17T03:45:15.526Z,1005.92
2022-08-17T03:46:28.615Z,1005.90
2022-08-17T03:47:15.007Z,1005.95
2022-08-17T03:48:13.996Z,1005.94
2022-08-17T03:49:14.012Z,1005.96
2022-08-17T03:50:13.968Z,1006.00
2022-08-17T03:51:14.821Z,1005.99
2022-08-17T03:52:13.938Z,1005.95
2022-08-17T03:53:13.928Z,1005.90
2022-08-17T03:54:13.917Z,1005.90
2022-08-17T03:55:13.921Z,1005.87
2022-08-17T03:56:13.894Z,1005.93
2022-08-17T03:57:13.880Z,1005.88
2022-08-17T03:58:13.881Z,1005.99
2022-08-17T03:59:22.215Z,1005.88
2022-08-17T04:00:14.871Z,1005.94
2022-08-17T04:01:13.871Z,1005.93
2022-08-17T04:02:13.812Z,1006.00
2022-08-17T04:03:13.801Z,1005.91
2022-08-17T04:04:13.792Z,1006.02
2022-08-17T04:05:13.772Z,1006.04
2022-08-17T04:06:13.794Z,1006.04
2022-08-17T04:07:13.760Z,1006.04
2022-08-17T04:08:13.734Z,1006.02
2022-08-17T04:09:13.884Z,1006.07
2022-08-17T04:10:13.718Z,1006.07
2022-08-17T04:11:13.714Z,1005.99
2022-08-17T04:12:13.799Z,1005.99
2022-08-17T04:13:13.678Z,1005.99
2022-08-17T04:14:13.670Z,1006.00
2022-08-17T04:15:13.649Z,1006.01
2022-08-17T04:16:13.634Z,1006.01
2022-08-17T04:17:13.617Z,1006.03
2022-08-17T04:18:13.637Z,1006.02
2022-08-17T04:19:13.590Z,1006.01
2022-08-17T04:20:13.582Z,1006.05
2022-08-17T04:21:13.569Z,1006.06
2022-08-17T04:22:30.152Z,1006.09
2022-08-17T04:23:14.550Z,1006.07
2022-08-17T04:24:13.529Z,1006.11
2022-08-17T04:25:13.523Z,1006.17
2022-08-17T04:26:53.855Z,1006.11
2022-08-17T04:27:14.490Z,1006.15
2022-08-17T04:28:16.209Z,1006.12
2022-08-17T04:29:13.513Z,1006.09
2022-08-17T04:30:13.451Z,1006.17
2022-08-17T04:31:13.443Z,1006.15
2022-08-17T04:32:13.434Z,1006.14
2022-08-17T04:33:13.737Z,1006.16
2022-08-17T04:34:13.440Z,1006.16
2022-08-17T04:35:13.394Z,1006.16
2022-08-17T04:36:13.390Z,1006.21
2022-08-17T04:37:13.371Z,1006.16
2022-08-17T04:38:13.347Z,1006.19
2022-08-17T04:39:13.339Z,1006.21
2022-08-17T04:40:13.436Z,1006.23
2022-08-17T04:41:13.321Z,1006.27
2022-08-17T04:42:13.300Z,1006.26
2022-08-17T04:43:13.287Z,1006.28
2022-08-17T04:44:13.277Z,1006.38
2022-08-17T04:45:14.293Z,1006.33
2022-08-17T04:46:13.248Z,1006.32
2022-08-17T04:47:13.239Z,1006.27
2022-08-17T04:48:13.221Z,1006.34
2022-08-17T04:49:13.209Z,1006.32
2022-08-17T04:50:13.199Z,1006.35
2022-08-17T04:51:13.222Z,1006.32
2022-08-17T04:52:29.714Z,1006.29
2022-08-17T04:53:14.158Z,1006.24
2022-08-17T04:54:13.153Z,1006.25
2022-08-17T04:55:13.132Z,1006.20
2022-08-17T04:56:16.706Z,1006.23
2022-08-17T04:57:13.233Z,1006.26
2022-08-17T04:58:13.092Z,1006.29
2022-08-17T04:59:13.099Z,1006.27
2022-08-17T05:00:13.065Z,1006.30
2022-08-17T05:01:13.137Z,1006.30
2022-08-17T05:02:13.045Z,1006.34
2022-08-17T05:03:13.064Z,1006.30
2022-08-17T05:04:21.331Z,1006.34
2022-08-17T05:05:14.006Z,1006.36
2022-08-17T05:06:13.006Z,1006.36
2022-08-17T05:07:12.986Z,1006.36
2022-08-17T05:08:12.972Z,1006.34
2022-08-17T05:09:12.996Z,1006.31
2022-08-17T05:10:12.945Z,1006.35
2022-08-17T05:11:12.929Z,1006.38
2022-08-17T05:12:12.918Z,1006.35
2022-08-17T05:13:12.912Z,1006.42
2022-08-17T05:14:12.892Z,1006.37
2022-08-17T05:15:13.004Z,1006.42
2022-08-17T05:16:12.872Z,1006.38
2022-08-17T05:17:12.853Z,1006.42
2022-08-17T05:18:12.839Z,1006.39
2022-08-17T05:19:12.833Z,1006.49
2022-08-17T05:20:12.822Z,1006.46
2022-08-17T05:21:12.835Z,1006.47
2022-08-17T05:22:12.792Z,1006.43
2022-08-17T05:23:12.775Z,1006.49
2022-08-17T05:24:38.702Z,1006.53
2022-08-17T05:25:13.749Z,1006.56
2022-08-17T05:26:25.546Z,1006.54
2022-08-17T05:27:18.749Z,1006.53
2022-08-17T05:28:13.725Z,1006.51
2022-08-17T05:29:12.699Z,1006.53
2022-08-17T05:30:12.717Z,1006.50
2022-08-17T05:31:12.689Z,1006.50
2022-08-17T05:32:38.287Z,1006.47
2022-08-17T05:33:13.667Z,1006.48
2022-08-17T05:34:12.648Z,1006.42
2022-08-17T05:35:12.624Z,1006.45
2022-08-17T05:36:42.267Z,1006.43
2022-08-17T05:37:13.599Z,1006.39
2022-08-17T05:38:12.589Z,1006.39
2022-08-17T05:39:15.859Z,1006.42
2022-08-17T05:40:12.561Z,1006.49
2022-08-17T05:41:12.546Z,1006.45
2022-08-17T05:42:12.545Z,1006.45
2022-08-17T05:43:12.536Z,1006.45
2022-08-17T05:44:12.512Z,1006.44
2022-08-17T05:45:12.524Z,1006.40
2022-08-17T05:46:12.483Z,1006.46
2022-08-17T05:47:12.473Z,1006.41
2022-08-17T05:48:12.462Z,1006.45
2022-08-17T05:49:12.456Z,1006.42
2022-08-17T05:50:12.433Z,1006.43
2022-08-17T05:51:13.454Z,1006.42
2022-08-17T05:52:12.417Z,1006.45
2022-08-17T05:53:12.399Z,1006.41
2022-08-17T05:54:12.389Z,1006.44
2022-08-17T05:55:12.368Z,1006.45
2022-08-17T05:56:29.611Z,1006.42
2022-08-17T05:57:13.379Z,1006.36
2022-08-17T05:58:12.340Z,1006.40
2022-08-17T05:59:12.353Z,1006.39
2022-08-17T06:00:12.316Z,1006.39
2022-08-17T06:01:12.332Z,1006.37
2022-08-17T06:02:12.281Z,1006.39
2022-08-17T06:03:12.289Z,1006.37
2022-08-17T06:04:12.271Z,1006.38
2022-08-17T06:05:12.244Z,1006.38
2022-08-17T06:06:12.246Z,1006.36
2022-08-17T06:07:12.231Z,1006.36
2022-08-17T06:08:12.224Z,1006.30
2022-08-17T06:09:12.231Z,1006.31
2022-08-17T06:10:12.200Z,1006.31
2022-08-17T06:11:12.193Z,1006.25
2022-08-17T06:12:14.446Z,1006.28
2022-08-17T06:13:13.144Z,1006.27
2022-08-17T06:14:12.167Z,1006.23
2022-08-17T06:15:12.244Z,1006.20
2022-08-17T06:16:33.116Z,1006.26
2022-08-17T06:17:13.104Z,1006.28
2022-08-17T06:18:15.925Z,1006.27
2022-08-17T06:19:13.085Z,1006.29
2022-08-17T06:20:12.057Z,1006.23
2022-08-17T06:21:12.079Z,1006.21
2022-08-17T06:22:12.036Z,1006.19
2022-08-17T06:23:12.021Z,1006.18
2022-08-17T06:24:12.011Z,1006.17
2022-08-17T06:25:12.000Z,1006.19
2022-08-17T06:26:11.989Z,1006.14
2022-08-17T06:27:11.988Z,1006.15
2022-08-17T06:28:13.944Z,1006.16
2022-08-17T06:29:18.804Z,1006.15
2022-08-17T06:30:12.931Z,1006.12
2022-08-17T06:31:11.919Z,1006.12
2022-08-17T06:32:12.106Z,1006.11
2022-08-17T06:33:11.926Z,1006.11
2022-08-17T06:34:11.932Z,1006.14
2022-08-17T06:35:11.894Z,1006.13
2022-08-17T06:36:15.828Z,1006.15
2022-08-17T06:37:11.846Z,1006.10
2022-08-17T06:38:34.968Z,1006.16
2022-08-17T06:39:12.845Z,1006.14
2022-08-17T06:40:11.865Z,1006.14
2022-08-17T06:41:11.816Z,1006.12
2022-08-17T06:42:59.920Z,1006.11
2022-08-17T06:43:13.195Z,1006.15
2022-08-17T06:44:11.756Z,1006.14
2022-08-17T06:45:12.797Z,1006.16
2022-08-17T06:46:11.735Z,1006.17
2022-08-17T06:47:12.669Z,1006.15
2022-08-17T06:48:11.708Z,1006.13
2022-08-17T06:49:11.700Z,1006.10
2022-08-17T06:50:11.680Z,1006.12
2022-08-17T06:51:11.701Z,1006.16
2022-08-17T06:52:11.657Z,1006.11
2022-08-17T06:53:12.645Z,1006.06
2022-08-17T06:54:11.622Z,1006.03
2022-08-17T06:55:17.790Z,1006.05
2022-08-17T06:56:12.733Z,1006.04
2022-08-17T06:57:11.593Z,1006.06
2022-08-17T06:58:16.451Z,1006.04
2022-08-17T06:59:12.577Z,1006.05
2022-08-17T07:00:11.554Z,1006.07
2022-08-17T07:01:11.656Z,1006.02
2022-08-17T07:02:11.570Z,1006.05
2022-08-17T07:03:12.483Z,1006.06
2022-08-17T07:04:11.950Z,1006.10
2022-08-17T07:05:11.523Z,1006.10
2022-08-17T07:06:11.517Z,1006.07
2022-08-17T07:07:11.467Z,1006.10
2022-08-17T07:08:11.645Z,1006.06
2022-08-17T07:09:11.467Z,1006.11
2022-08-17T07:10:11.430Z,1006.17
2022-08-17T07:11:11.431Z,1006.11
2022-08-17T07:12:11.413Z,1006.20
2022-08-17T07:13:11.388Z,1006.12
2022-08-17T07:14:16.572Z,1006.15
2022-08-17T07:15:12.376Z,1006.16
2022-08-17T07:16:11.369Z,1006.17
2022-08-17T07:17:11.347Z,1006.20
2022-08-17T07:18:11.331Z,1006.18
2022-08-17T07:19:11.355Z,1006.19
2022-08-17T07:20:11.425Z,1006.18
2022-08-17T07:21:15.523Z,1006.18
2022-08-17T07:22:12.299Z,1006.11
2022-08-17T07:23:11.266Z,1006.17
2022-08-17T07:24:11.255Z,1006.18
2022-08-17T07:25:12.277Z,1006.19
2022-08-17T07:26:11.244Z,1006.18
2022-08-17T07:27:12.164Z,1006.19
2022-08-17T07:28:11.205Z,1006.16
2022-08-17T07:29:11.197Z,1006.20
2022-08-17T07:30:11.404Z,1006.17
2022-08-17T07:31:11.208Z,1006.12
2022-08-17T07:32:11.169Z,1006.13
2022-08-17T07:33:13.413Z,1006.16
2022-08-17T07:34:11.129Z,1006.18
2022-08-17T07:35:11.510Z,1006.18
2022-08-17T07:36:11.110Z,1006.10
2022-08-17T07:37:12.120Z,1006.15
2022-08-17T07:38:24.678Z,1006.19
2022-08-17T07:39:12.074Z,1006.21
2022-08-17T07:40:16.204Z,1006.17
2022-08-17T07:41:12.044Z,1006.13
2022-08-17T07:42:11.038Z,1006.23
2022-08-17T07:43:15.593Z,1006.18
2022-08-17T07:44:12.004Z,1006.19
2022-08-17T07:45:11.002Z,1006.22
2022-08-17T07:46:10.977Z,1006.16
2022-08-17T07:47:10.967Z,1006.13
2022-08-17T07:48:10.956Z,1006.10
2022-08-17T07:49:10.990Z,1006.18
2022-08-17T07:50:10.934Z,1006.16
2022-08-17T07:51:10.917Z,1006.14
2022-08-17T07:52:24.001Z,1006.13
2022-08-17T07:53:11.903Z,1006.11
2022-08-17T07:54:14.396Z,1006.16
2022-08-17T07:55:10.914Z,1006.15
2022-08-17T07:56:10.853Z,1006.21
2022-08-17T07:57:11.805Z,1006.12
2022-08-17T07:58:10.835Z,1006.20
2022-08-17T07:59:10.833Z,1006.22
2022-08-17T08:00:14.697Z,1006.20
2022-08-17T08:01:11.832Z,1006.15
2022-08-17T08:02:10.850Z,1006.16
2022-08-17T08:03:10.776Z,1006.18
2022-08-17T08:04:10.755Z,1006.17
2022-08-17T08:05:10.772Z,1006.16
2022-08-17T08:06:10.736Z,1006.21
2022-08-17T08:07:10.846Z,1006.16
2022-08-17T08:08:10.715Z,1006.16
2022-08-17T08:09:10.698Z,1006.21
2022-08-17T08:10:10.698Z,1006.18
2022-08-17T08:11:10.675Z,1006.20
2022-08-17T08:12:10.665Z,1006.19
2022-08-17T08:13:14.041Z,1006.19
2022-08-17T08:14:10.640Z,1006.18
2022-08-17T08:15:10.624Z,1006.20
2022-08-17T08:16:11.559Z,1006.18
2022-08-17T08:17:10.610Z,1006.20
2022-08-17T08:18:10.587Z,1006.19
2022-08-17T08:19:10.603Z,1006.18
2022-08-17T08:20:37.838Z,1006.18
2022-08-17T08:21:11.565Z,1006.24
2022-08-17T08:22:10.540Z,1006.25
2022-08-17T08:23:10.533Z,1006.23
2022-08-17T08:24:10.512Z,1006.23
2022-08-17T08:25:11.493Z,1006.25
2022-08-17T08:26:12.368Z,1006.24
2022-08-17T08:27:11.507Z,1006.21
2022-08-17T08:28:10.458Z,1006.19
2022-08-17T08:29:10.446Z,1006.23
2022-08-17T08:30:10.442Z,1006.21
2022-08-17T08:31:10.493Z,1006.16
2022-08-17T08:32:10.410Z,1006.17
2022-08-17T08:33:10.406Z,1006.18
2022-08-17T08:34:53.394Z,1006.15
2022-08-17T08:35:11.385Z,1006.18
2022-08-17T08:36:10.400Z,1006.15
2022-08-17T08:37:16.519Z,1006.19
2022-08-17T08:38:11.339Z,1006.17
2022-08-17T08:39:10.321Z,1006.14
2022-08-17T08:40:10.397Z,1006.11
2022-08-17T08:41:10.301Z,1006.14
2022-08-17T08:42:10.296Z,1006.13
2022-08-17T08:43:10.400Z,1006.13
2022-08-17T08:44:10.282Z,1006.12
2022-08-17T08:45:10.245Z,1006.12
2022-08-17T08:46:10.242Z,1006.14
2022-08-17T08:47:10.226Z,1006.16
2022-08-17T08:48:57.034Z,1006.17
2022-08-17T08:49:12.205Z,1006.18
2022-08-17T08:50:30.205Z,1006.17
2022-08-17T08:51:11.206Z,1006.20
2022-08-17T08:52:10.168Z,1006.20
2022-08-17T08:53:10.183Z,1006.23
2022-08-17T08:54:10.186Z,1006.26
2022-08-17T08:55:10.179Z,1006.23
2022-08-17T08:56:10.132Z,1006.21
2022-08-17T08:57:31.136Z,1006.22
2022-08-17T08:58:30.646Z,1006.21
2022-08-17T08:59:11.152Z,1006.19
2022-08-17T09:00:10.078Z,1006.19
2022-08-17T09:01:16.634Z,1006.17
2022-08-17T09:02:11.052Z,1006.19
2022-08-17T09:03:10.032Z,1006.17
2022-08-17T09:04:24.297Z,1006.17
2022-08-17T09:05:14.294Z,1006.18
2022-08-17T09:06:37.673Z,1006.13
2022-08-17T09:07:11.042Z,1006.12
2022-08-17T09:08:09.963Z,1006.17
2022-08-17T09:09:10.405Z,1006.17
2022-08-17T09:10:09.960Z,1006.15
2022-08-17T09:11:09.933Z,1006.16
2022-08-17T09:12:10.810Z,1006.16
2022-08-17T09:13:10.706Z,1006.15
2022-08-17T09:14:21.591Z,1006.14
2022-08-17T09:15:13.130Z,1006.12
2022-08-17T09:16:11.001Z,1006.12
2022-08-17T09:17:11.048Z,1006.14
2022-08-17T09:18:59.078Z,1006.12
2022-08-17T09:19:12.937Z,1006.13
2022-08-17T09:20:10.051Z,1006.14
2022-08-17T09:21:10.620Z,1006.20
2022-08-17T09:22:10.798Z,1006.17
2022-08-17T09:23:11.245Z,1006.17
2022-08-17T09:24:10.186Z,1006.15
2022-08-17T09:25:10.164Z,1006.15
2022-08-17T09:26:09.964Z,1006.11
2022-08-17T09:27:09.748Z,1006.15
2022-08-17T09:28:09.726Z,1006.13
2022-08-17T09:29:09.717Z,1006.09
2022-08-17T09:30:09.712Z,1006.13
2022-08-17T09:31:09.999Z,1006.09
2022-08-17T09:32:10.566Z,1006.11
2022-08-17T09:33:10.892Z,1006.13
2022-08-17T09:34:10.145Z,1006.15
2022-08-17T09:35:10.093Z,1006.18
2022-08-17T09:36:10.648Z,1006.14
2022-08-17T09:37:09.690Z,1006.17
2022-08-17T09:38:09.666Z,1006.16
2022-08-17T09:39:09.604Z,1006.11
2022-08-17T09:40:10.094Z,1006.09
2022-08-17T09:41:10.874Z,1006.07
2022-08-17T09:42:10.590Z,1006.09
2022-08-17T09:43:10.744Z,1006.08
2022-08-17T09:44:22.811Z,1006.12
2022-08-17T09:45:13.476Z,1006.08
2022-08-17T09:46:09.656Z,1006.04
2022-08-17T09:47:11.192Z,1006.08
2022-08-17T09:48:09.498Z,1006.05
2022-08-17T09:49:11.137Z,1006.09
2022-08-17T09:50:09.719Z,1006.08
2022-08-17T09:51:09.930Z,1006.03
2022-08-17T09:52:10.025Z,1006.06
2022-08-17T09:53:09.845Z,1006.09
2022-08-17T09:54:37.551Z,1006.01
2022-08-17T09:55:14.320Z,1006.04
2022-08-17T09:56:10.760Z,1006.04
2022-08-17T09:57:28.760Z,1006.10
2022-08-17T09:58:10.693Z,1006.09
2022-08-17T09:59:09.612Z,1006.08
2022-08-17T10:00:09.415Z,1006.08
2022-08-17T10:01:09.412Z,1006.12
2022-08-17T10:02:13.263Z,1006.05
2022-08-17T10:03:09.756Z,1006.05
2022-08-17T10:04:09.297Z,1006.09
2022-08-17T10:05:10.909Z,1006.03
2022-08-17T10:06:12.076Z,1006.07
2022-08-17T10:07:09.933Z,1006.04
2022-08-17T10:08:09.302Z,1006.00
2022-08-17T10:09:09.443Z,1006.02
2022-08-17T10:10:13.927Z,1006.06
2022-08-17T10:11:10.250Z,1006.07
2022-08-17T10:12:09.254Z,1006.08
2022-08-17T10:13:09.554Z,1006.02
2022-08-17T10:14:36.050Z,1006.02
2022-08-17T10:15:10.471Z,1006.03
2022-08-17T10:16:09.163Z,1006.02
2022-08-17T10:17:09.144Z,1005.99
2022-08-17T10:18:10.192Z,1006.08
2022-08-17T10:19:09.465Z,1005.98
2022-08-17T10:20:09.105Z,1006.00
2022-08-17T10:21:09.897Z,1005.94
2022-08-17T10:22:32.729Z,1005.93
2022-08-17T10:23:10.065Z,1005.94
2022-08-17T10:24:09.067Z,1005.93
2022-08-17T10:25:23.925Z,1005.94
2022-08-17T10:26:10.040Z,1005.91
2022-08-17T10:27:09.029Z,1005.94
2022-08-17T10:28:11.735Z,1005.91
2022-08-17T10:29:10.384Z,1005.97
2022-08-17T10:30:08.984Z,1005.96
2022-08-17T10:32:09.966Z,1005.95
2022-08-17T10:33:08.955Z,1005.93
2022-08-17T10:34:08.961Z,1005.92
2022-08-17T10:35:08.925Z,1005.96
2022-08-17T10:36:10.868Z,1005.90
2022-08-17T10:37:09.056Z,1005.91
2022-08-17T10:38:08.926Z,1005.93
2022-08-17T10:39:08.922Z,1005.91
2022-08-17T10:40:08.946Z,1005.95
2022-08-17T10:41:09.659Z,1005.96
2022-08-17T10:42:08.863Z,1005.97
2022-08-17T10:43:08.861Z,1005.98
2022-08-17T10:44:37.959Z,1006.00
2022-08-17T10:45:09.810Z,1006.01
2022-08-17T10:46:10.442Z,1005.99
2022-08-17T10:47:09.781Z,1005.95
2022-08-17T10:48:09.089Z,1005.99
2022-08-17T10:49:08.812Z,1006.03
2022-08-17T10:50:08.744Z,1006.05
2022-08-17T10:51:08.765Z,1006.00
2022-08-17T10:52:08.756Z,1005.98
2022-08-17T10:53:08.723Z,1005.97
2022-08-17T10:54:08.729Z,1005.97
2022-08-17T10:55:08.719Z,1005.95
2022-08-17T10:56:08.687Z,1005.91
2022-08-17T10:57:08.662Z,1005.91
2022-08-17T10:58:08.647Z,1005.91
2022-08-17T10:59:08.766Z,1005.86
2022-08-17T11:00:08.640Z,1005.87
2022-08-17T11:01:08.750Z,1005.94
2022-08-17T11:02:08.602Z,1005.96
2022-08-17T11:03:08.598Z,1005.96
2022-08-17T11:04:08.599Z,1005.95
2022-08-17T11:05:08.594Z,1005.94
2022-08-17T11:06:08.580Z,1005.95
2022-08-17T11:07:08.624Z,1005.97
2022-08-17T11:08:09.352Z,1006.02
2022-08-17T11:09:08.555Z,1006.00
2022-08-17T11:10:08.525Z,1005.93
2022-08-17T11:11:08.556Z,1005.95
2022-08-17T11:12:08.546Z,1005.94
2022-08-17T11:13:08.539Z,1005.95
2022-08-17T11:14:08.458Z,1005.92
2022-08-17T11:15:08.459Z,1005.86
2022-08-17T11:16:09.231Z,1005.88
2022-08-17T11:17:08.436Z,1005.90
2022-08-17T11:18:08.410Z,1005.92
2022-08-17T11:19:08.437Z,1005.90
2022-08-17T11:20:08.414Z,1005.87
2022-08-17T11:21:08.381Z,1005.85
2022-08-17T11:22:08.736Z,1005.85
2022-08-17T11:23:08.359Z,1005.84
2022-08-17T11:24:08.350Z,1005.88
2022-08-17T11:25:11.687Z,1005.83
2022-08-17T11:26:08.314Z,1005.80
2022-08-17T11:27:09.094Z,1005.83
2022-08-17T11:28:08.762Z,1005.89
2022-08-17T11:29:09.244Z,1005.85
2022-08-17T11:30:08.293Z,1005.88
2022-08-17T11:31:08.279Z,1005.90
2022-08-17T11:32:08.245Z,1005.90
2022-08-17T11:33:08.227Z,1005.92
2022-08-17T11:34:08.224Z,1005.92
2022-08-17T11:35:08.217Z,1005.90
2022-08-17T11:36:08.197Z,1005.92
2022-08-17T11:37:08.292Z,1005.95
2022-08-17T11:38:14.098Z,1005.93
2022-08-17T11:39:09.161Z,1005.96
2022-08-17T11:40:08.205Z,1005.97
2022-08-17T11:41:08.146Z,1005.96
2022-08-17T11:42:08.132Z,1005.92
2022-08-17T11:43:08.175Z,1005.94
2022-08-17T11:44:08.113Z,1005.89
2022-08-17T11:45:08.877Z,1005.86
2022-08-17T11:46:08.076Z,1005.89
2022-08-17T11:47:08.065Z,1005.87
2022-08-17T11:48:27.191Z,1005.89
2022-08-17T11:49:09.067Z,1005.90
2022-08-17T11:50:08.033Z,1005.88
2022-08-17T11:51:08.025Z,1005.90
2022-08-17T11:52:07.997Z,1005.89
2022-08-17T11:53:07.989Z,1005.95
2022-08-17T11:54:32.261Z,1005.92
2022-08-17T11:55:34.082Z,1005.94
2022-08-17T11:56:08.960Z,1005.95
2022-08-17T11:57:07.970Z,1005.95
2022-08-17T11:58:07.939Z,1005.95
2022-08-17T11:59:08.712Z,1005.94
2022-08-17T12:00:08.799Z,1005.98
2022-08-17T12:01:07.896Z,1005.98
2022-08-17T12:02:07.883Z,1005.97
2022-08-17T12:03:07.920Z,1005.96
2022-08-17T12:04:07.909Z,1005.97
2022-08-17T12:05:11.949Z,1005.91
2022-08-17T12:06:07.835Z,1006.00